sensor_id;sensor_type;location;lat;lon;timestamp;pressure;altitude;pressure_sealevel;temperature;humidity
38786;BME280;24535;45.508;12.252;2022-12-19T00:01:59;103461.31;;;5.82;59.85
38786;BME280;24535;45.508;12.252;2022-12-19T00:04:25;103459.59;;;5.78;59.67
38786;BME280;24535;45.508;12.252;2022-12-19T00:06:50;103466.56;;;5.79;59.94
38786;BME280;24535;45.508;12.252;2022-12-19T00:12:06;103467.44;;;5.78;60.28
38786;BME280;24535;45.508;12.252;2022-12-19T00:14:31;103472.66;;;5.78;59.94
38786;BME280;24535;45.508;12.252;2022-12-19T00:16:57;103462.19;;;5.78;60.51
38786;BME280;24535;45.508;12.252;2022-12-19T00:19:22;103463.06;;;5.78;60.05
38786;BME280;24535;45.508;12.252;2022-12-19T00:21:48;103474.41;;;5.82;60.01
38786;BME280;24535;45.508;12.252;2022-12-19T00:24:13;103474.41;;;5.82;59.55
38786;BME280;24535;45.508;12.252;2022-12-19T00:26:51;103462.19;;;5.78;60.17
38786;BME280;24535;45.508;12.252;2022-12-19T00:29:17;103469.16;;;5.83;60.58
38786;BME280;24535;45.508;12.252;2022-12-19T00:31:44;103462.19;;;5.84;60.07
38786;BME280;24535;45.508;12.252;2022-12-19T00:34:09;103463.94;;;5.88;59.74
38786;BME280;24535;45.508;12.252;2022-12-19T00:36:35;103463.03;;;5.89;59.76
38786;BME280;24535;45.508;12.252;2022-12-19T00:39:04;103463.94;;;5.88;60.05
38786;BME280;24535;45.508;12.252;2022-12-19T00:41:32;103469.16;;;5.89;59.96
38786;BME280;24535;45.508;12.252;2022-12-19T00:44:00;103467.41;;;5.90;59.98
38786;BME280;24535;45.508;12.252;2022-12-19T00:46:28;103473.50;;;5.90;59.55
38786;BME280;24535;45.508;12.252;2022-12-19T00:48:55;103470.03;;;5.88;59.55
38786;BME280;24535;45.508;12.252;2022-12-19T00:51:45;103478.75;;;5.86;59.49
38786;BME280;24535;45.508;12.252;2022-12-19T00:54:33;103475.25;;;5.82;59.51
38786;BME280;24535;45.508;12.252;2022-12-19T01:02:07;103470.06;;;5.76;59.58
38786;BME280;24535;45.508;12.252;2022-12-19T01:04:33;103468.31;;;5.77;59.71
38786;BME280;24535;45.508;12.252;2022-12-19T01:06:59;103479.63;;;5.79;60.16
38786;BME280;24535;45.508;12.252;2022-12-19T01:09:24;103483.13;;;5.78;59.78
38786;BME280;24535;45.508;12.252;2022-12-19T01:14:27;103466.59;;;5.76;59.78
38786;BME280;24535;45.508;12.252;2022-12-19T01:16:56;103460.47;;;5.77;59.59
38786;BME280;24535;45.508;12.252;2022-12-19T01:19:21;103445.66;;;5.71;59.92
38786;BME280;24535;45.508;12.252;2022-12-19T01:22:02;103453.50;;;5.71;59.50
38786;BME280;24535;45.508;12.252;2022-12-19T01:24:28;103454.38;;;5.72;59.32
38786;BME280;24535;45.508;12.252;2022-12-19T01:26:53;103465.69;;;5.74;59.82
38786;BME280;24535;45.508;12.252;2022-12-19T01:29:19;103468.31;;;5.77;59.95
38786;BME280;24535;45.508;12.252;2022-12-19T01:52:24;103473.44;;;6.18;60.19
38786;BME280;24535;45.508;12.252;2022-12-19T01:54:50;103470.78;;;6.19;59.54
38786;BME280;24535;45.508;12.252;2022-12-19T01:57:43;103480.38;;;6.24;59.24
38786;BME280;24535;45.508;12.252;2022-12-19T02:00:09;103477.75;;;6.27;59.87
38786;BME280;24535;45.508;12.252;2022-12-19T02:02:45;103476.00;;;6.29;59.85
38786;BME280;24535;45.508;12.252;2022-12-19T02:05:13;103470.78;;;6.26;59.44
38786;BME280;24535;45.508;12.252;2022-12-19T02:07:45;103464.63;;;6.31;59.25
38786;BME280;24535;45.508;12.252;2022-12-19T02:10:20;103456.81;;;6.30;58.99
38786;BME280;24535;45.508;12.252;2022-12-19T02:12:46;103459.41;;;6.30;58.80
38786;BME280;24535;45.508;12.252;2022-12-19T02:23:37;103447.25;;;6.21;58.54
38786;BME280;24535;45.508;12.252;2022-12-19T02:29:27;103448.13;;;6.20;58.50
38786;BME280;24535;45.508;12.252;2022-12-19T02:32:28;103436.78;;;6.19;58.50
38786;BME280;24535;45.508;12.252;2022-12-19T02:35:30;103428.06;;;6.19;57.87
38786;BME280;24535;45.508;12.252;2022-12-19T02:43:56;103421.94;;;6.23;59.64
38786;BME280;24535;45.508;12.252;2022-12-19T02:46:23;103422.78;;;6.28;59.62
38786;BME280;24535;45.508;12.252;2022-12-19T02:48:50;103437.56;;;6.38;59.55
38786;BME280;24535;45.508;12.252;2022-12-19T02:54:14;103431.41;;;6.46;59.14
38786;BME280;24535;45.508;12.252;2022-12-19T03:00:10;103428.81;;;6.41;59.39
38786;BME280;24535;45.508;12.252;2022-12-19T03:02:54;103435.78;;;6.42;59.34
38786;BME280;24535;45.508;12.252;2022-12-19T03:08:25;103434.91;;;6.46;59.01
38786;BME280;24535;45.508;12.252;2022-12-19T03:11:07;103437.53;;;6.43;59.05
38786;BME280;24535;45.508;12.252;2022-12-19T03:17:07;103433.19;;;6.36;59.05
38786;BME280;24535;45.508;12.252;2022-12-19T03:19:34;103429.72;;;6.34;58.63
38786;BME280;24535;45.508;12.252;2022-12-19T03:22:11;103435.88;;;6.30;58.66
38786;BME280;24535;45.508;12.252;2022-12-19T03:24:40;103438.50;;;6.28;58.90
38786;BME280;24535;45.508;12.252;2022-12-19T03:27:32;103432.38;;;6.29;59.08
38786;BME280;24535;45.508;12.252;2022-12-19T03:30:11;103425.41;;;6.28;58.75
38786;BME280;24535;45.508;12.252;2022-12-19T03:32:54;103427.13;;;6.31;58.96
38786;BME280;24535;45.508;12.252;2022-12-19T03:35:35;103421.94;;;6.23;58.59
38786;BME280;24535;45.508;12.252;2022-12-19T03:38:03;103430.66;;;6.22;58.82
38786;BME280;24535;45.508;12.252;2022-12-19T03:40:30;103434.16;;;6.23;58.56
38786;BME280;24535;45.508;12.252;2022-12-19T03:46:44;103429.81;;;6.20;58.08
38786;BME280;24535;45.508;12.252;2022-12-19T03:49:16;103445.47;;;6.23;59.11
38786;BME280;24535;45.508;12.252;2022-12-19T03:58:25;103431.59;;;6.12;58.45
38786;BME280;24535;45.508;12.252;2022-12-19T04:00:47;103422.00;;;6.06;58.46
38786;BME280;24535;45.508;12.252;2022-12-19T04:03:17;103417.69;;;6.01;58.70
38786;BME280;24535;45.508;12.252;2022-12-19T04:06:02;103414.19;;;5.99;58.74
38786;BME280;24535;45.508;12.252;2022-12-19T04:08:53;103422.97;;;5.93;58.45
38786;BME280;24535;45.508;12.252;2022-12-19T04:11:20;103422.94;;;5.91;58.79
38786;BME280;24535;45.508;12.252;2022-12-19T04:13:50;103422.03;;;5.91;59.30
38786;BME280;24535;45.508;12.252;2022-12-19T04:16:28;103420.34;;;5.78;59.18
38786;BME280;24535;45.508;12.252;2022-12-19T04:19:01;103428.19;;;5.79;59.91
38786;BME280;24535;45.508;12.252;2022-12-19T04:21:40;103433.41;;;5.85;59.99
38786;BME280;24535;45.508;12.252;2022-12-19T04:24:13;103416.00;;;5.80;59.61
38786;BME280;24535;45.508;12.252;2022-12-19T04:30:02;103423.84;;;5.74;59.24
38786;BME280;24535;45.508;12.252;2022-12-19T04:32:32;103421.25;;;5.66;59.73
38786;BME280;24535;45.508;12.252;2022-12-19T04:34:58;103423.91;;;5.67;59.47
38786;BME280;24535;45.508;12.252;2022-12-19T04:37:24;103423.91;;;5.67;59.88
38786;BME280;24535;45.508;12.252;2022-12-19T04:39:49;103432.56;;;5.74;59.84
38786;BME280;24535;45.508;12.252;2022-12-19T04:42:21;103426.47;;;5.70;59.70
38786;BME280;24535;45.508;12.252;2022-12-19T04:48:33;103428.19;;;5.81;60.13
38786;BME280;24535;45.508;12.252;2022-12-19T04:50:59;103408.16;;;5.74;59.72
38786;BME280;24535;45.508;12.252;2022-12-19T04:53:27;103416.88;;;5.76;59.94
38786;BME280;24535;45.508;12.252;2022-12-19T04:56:03;103416.84;;;5.79;59.72
38786;BME280;24535;45.508;12.252;2022-12-19T04:58:30;103418.63;;;5.77;59.92
38786;BME280;24535;45.508;12.252;2022-12-19T05:01:10;103431.69;;;5.77;59.81
38786;BME280;24535;45.508;12.252;2022-12-19T05:06:55;103434.31;;;5.70;60.31
38786;BME280;24535;45.508;12.252;2022-12-19T05:12:47;103423.00;;;5.65;59.85
38786;BME280;24535;45.508;12.252;2022-12-19T05:18:25;103414.25;;;5.71;59.76
38786;BME280;24535;45.508;12.252;2022-12-19T05:27:21;103388.13;;;5.71;59.79
38786;BME280;24535;45.508;12.252;2022-12-19T05:30:28;103390.75;;;5.73;59.39
38786;BME280;24535;45.508;12.252;2022-12-19T05:33:14;103395.97;;;5.74;59.54
38786;BME280;24535;45.508;12.252;2022-12-19T05:35:46;103399.44;;;5.78;59.98
38786;BME280;24535;45.508;12.252;2022-12-19T05:38:15;103417.72;;;5.85;60.62
38786;BME280;24535;45.508;12.252;2022-12-19T05:44:25;103425.47;;;6.17;60.34
38786;BME280;24535;45.508;12.252;2022-12-19T05:46:59;103425.44;;;6.21;59.59
38786;BME280;24535;45.508;12.252;2022-12-19T05:49:25;103427.19;;;6.20;59.92
38786;BME280;24535;45.508;12.252;2022-12-19T05:52:15;103435.88;;;6.24;59.62
38786;BME280;24535;45.508;12.252;2022-12-19T05:55:02;103431.56;;;6.15;59.17
38786;BME280;24535;45.508;12.252;2022-12-19T05:57:48;103439.47;;;6.04;59.22
38786;BME280;24535;45.508;12.252;2022-12-19T06:03:30;103428.13;;;6.02;59.31
38786;BME280;24535;45.508;12.252;2022-12-19T06:05:55;103415.94;;;5.98;59.51
38786;BME280;24535;45.508;12.252;2022-12-19T06:08:21;103430.75;;;6.05;59.46
38786;BME280;24535;45.508;12.252;2022-12-19T06:11:30;103428.97;;;6.10;59.21
38786;BME280;24535;45.508;12.252;2022-12-19T06:17:53;103427.19;;;6.15;59.51
38786;BME280;24535;45.508;12.252;2022-12-19T06:20:19;103427.19;;;6.15;59.05
38786;BME280;24535;45.508;12.252;2022-12-19T06:25:57;103424.59;;;6.17;59.10
38786;BME280;24535;45.508;12.252;2022-12-19T06:28:44;103428.03;;;6.22;59.11
38786;BME280;24535;45.508;12.252;2022-12-19T06:34:15;103421.06;;;6.23;58.67
38786;BME280;24535;45.508;12.252;2022-12-19T06:37:04;103419.34;;;6.22;59.07
38786;BME280;24535;45.508;12.252;2022-12-19T06:39:30;103427.19;;;6.25;59.36
38786;BME280;24535;45.508;12.252;2022-12-19T06:41:55;103427.19;;;6.25;59.07
38786;BME280;24535;45.508;12.252;2022-12-19T06:44:45;103426.22;;;6.38;59.37
38786;BME280;24535;45.508;12.252;2022-12-19T06:47:11;103418.34;;;6.41;59.58
38786;BME280;24535;45.508;12.252;2022-12-19T06:49:48;103428.75;;;6.53;59.24
38786;BME280;24535;45.508;12.252;2022-12-19T06:52:17;103427.00;;;6.57;58.47
38786;BME280;24535;45.508;12.252;2022-12-19T06:54:46;103424.31;;;6.60;58.41
38786;BME280;24535;45.508;12.252;2022-12-19T06:58:17;103432.16;;;6.63;58.11
38786;BME280;24535;45.508;12.252;2022-12-19T07:01:03;103429.56;;;6.61;58.06
38786;BME280;24535;45.508;12.252;2022-12-19T07:40:06;103478.16;;;7.05;57.33
38786;BME280;24535;45.508;12.252;2022-12-19T07:42:49;103480.75;;;7.07;57.28
38786;BME280;24535;45.508;12.252;2022-12-19T07:51:02;103483.34;;;7.08;57.34
38786;BME280;24535;45.508;12.252;2022-12-19T07:53:28;103478.97;;;7.10;57.88
38786;BME280;24535;45.508;12.252;2022-12-19T07:55:57;103496.34;;;7.21;57.38
38786;BME280;24535;45.508;12.252;2022-12-19T08:04:55;103484.06;;;7.29;56.41
38786;BME280;24535;45.508;12.252;2022-12-19T08:13:40;103470.84;;;7.42;56.52
38786;BME280;24535;45.508;12.252;2022-12-19T08:16:06;103469.97;;;7.42;56.39
38786;BME280;24535;45.508;12.252;2022-12-19T08:18:32;103459.38;;;7.51;56.47
38786;BME280;24535;45.508;12.252;2022-12-19T08:24:19;103465.47;;;7.53;56.09
38786;BME280;24535;45.508;12.252;2022-12-19T08:27:00;103450.66;;;7.49;56.12
38786;BME280;24535;45.508;12.252;2022-12-19T08:32:48;103459.34;;;7.53;56.50
38786;BME280;24535;45.508;12.252;2022-12-19T08:35:20;103461.06;;;7.57;56.33
38786;BME280;24535;45.508;12.252;2022-12-19T08:37:47;103461.00;;;7.61;56.40
38786;BME280;24535;45.508;12.252;2022-12-19T08:40:36;103463.63;;;7.66;55.93
38786;BME280;24535;45.508;12.252;2022-12-19T08:43:02;103463.56;;;7.71;56.30
38786;BME280;24535;45.508;12.252;2022-12-19T08:45:31;103470.47;;;7.76;56.79
38786;BME280;24535;45.508;12.252;2022-12-19T08:48:31;103463.41;;;7.81;55.70
38786;BME280;24535;45.508;12.252;2022-12-19T11:31:21;103380.53;;;9.80;49.82
38786;BME280;24535;45.508;12.252;2022-12-19T11:37:19;103378.84;;;9.77;49.10
38786;BME280;24535;45.508;12.252;2022-12-19T13:12:19;103296.34;;;10.17;47.65
38786;BME280;24535;45.508;12.252;2022-12-19T13:24:23;103283.06;;;10.22;50.02
38786;BME280;24535;45.508;12.252;2022-12-19T13:35:43;103287.28;;;10.29;49.23
38786;BME280;24535;45.508;12.252;2022-12-19T13:38:50;103275.81;;;10.31;48.69
38786;BME280;24535;45.508;12.252;2022-12-19T13:50:03;103301.19;;;10.35;49.60
38786;BME280;24535;45.508;12.252;2022-12-19T13:53:19;103295.97;;;10.34;48.68
38786;BME280;24535;45.508;12.252;2022-12-19T13:56:17;103299.56;;;10.30;48.11
38786;BME280;24535;45.508;12.252;2022-12-19T13:59:00;103307.53;;;10.27;47.94
38786;BME280;24535;45.508;12.252;2022-12-19T14:01:31;103310.31;;;10.19;47.77
38786;BME280;24535;45.508;12.252;2022-12-19T15:51:28;103299.56;;;8.59;53.57
38786;BME280;24535;45.508;12.252;2022-12-19T16:02:38;103285.84;;;8.42;53.84
38786;BME280;24535;45.508;12.252;2022-12-19T16:05:04;103285.88;;;8.40;54.09
38786;BME280;24535;45.508;12.252;2022-12-19T16:07:29;103286.88;;;8.32;54.27
38786;BME280;24535;45.508;12.252;2022-12-19T16:17:25;103297.53;;;8.23;55.63
38786;BME280;24535;45.508;12.252;2022-12-19T16:33:20;103297.03;;;7.96;56.40
38786;BME280;24535;45.508;12.252;2022-12-19T16:36:13;103299.69;;;7.93;55.70
38786;BME280;24535;45.508;12.252;2022-12-19T16:38:54;103281.50;;;7.82;56.07
38786;BME280;24535;45.508;12.252;2022-12-19T16:41:47;103295.44;;;7.84;56.24
38786;BME280;24535;45.508;12.252;2022-12-19T17:15:11;103290.63;;;7.52;57.28
38786;BME280;24535;45.508;12.252;2022-12-19T17:32:17;103292.56;;;7.38;58.58
38786;BME280;24535;45.508;12.252;2022-12-19T17:35:15;103298.66;;;7.40;58.71
38786;BME280;24535;45.508;12.252;2022-12-19T17:41:03;103308.28;;;7.39;57.84
38786;BME280;24535;45.508;12.252;2022-12-19T17:43:37;103313.56;;;7.38;58.45
38786;BME280;24535;45.508;12.252;2022-12-19T17:46:02;103314.44;;;7.35;58.44
38786;BME280;24535;45.508;12.252;2022-12-19T17:48:32;103312.72;;;7.33;58.37
38786;BME280;24535;45.508;12.252;2022-12-19T18:06:57;103293.50;;;7.34;58.55
38786;BME280;24535;45.508;12.252;2022-12-19T18:09:26;103300.50;;;7.32;58.78
38786;BME280;24535;45.508;12.252;2022-12-19T18:11:54;103303.13;;;7.32;58.89
38786;BME280;24535;45.508;12.252;2022-12-19T18:17:21;103304.84;;;7.33;58.52
38786;BME280;24535;45.508;12.252;2022-12-19T18:19:56;103295.28;;;7.29;58.80
38786;BME280;24535;45.508;12.252;2022-12-19T18:22:31;103297.84;;;7.35;58.58
38786;BME280;24535;45.508;12.252;2022-12-19T18:24:57;103303.06;;;7.36;58.44
38786;BME280;24535;45.508;12.252;2022-12-19T18:36:28;103293.44;;;7.38;59.00
38786;BME280;24535;45.508;12.252;2022-12-19T18:38:56;103279.47;;;7.36;58.90
38786;BME280;24535;45.508;12.252;2022-12-19T18:41:22;103273.34;;;7.36;59.19
38786;BME280;24535;45.508;12.252;2022-12-19T18:43:48;103289.97;;;7.38;59.06
38786;BME280;24535;45.508;12.252;2022-12-19T18:46:18;103285.59;;;7.35;59.23
38786;BME280;24535;45.508;12.252;2022-12-19T18:49:02;103274.28;;;7.33;59.14
38786;BME280;24535;45.508;12.252;2022-12-19T18:51:30;103274.28;;;7.33;59.14
38786;BME280;24535;45.508;12.252;2022-12-19T18:53:56;103284.72;;;7.36;59.02
38786;BME280;24535;45.508;12.252;2022-12-19T18:56:22;103286.47;;;7.37;59.10
38786;BME280;24535;45.508;12.252;2022-12-19T18:58:50;103283.00;;;7.34;58.79
38786;BME280;24535;45.508;12.252;2022-12-19T19:01:19;103292.59;;;7.35;58.89
38786;BME280;24535;45.508;12.252;2022-12-19T19:03:52;103280.50;;;7.23;58.75
38786;BME280;24535;45.508;12.252;2022-12-19T19:12:22;103287.56;;;7.18;58.92
38786;BME280;24535;45.508;12.252;2022-12-19T19:14:48;103283.22;;;7.15;58.71
38786;BME280;24535;45.508;12.252;2022-12-19T19:21:01;103279.72;;;7.15;59.29
38786;BME280;24535;45.508;12.252;2022-12-19T19:26:59;103285.03;;;7.10;59.33
38786;BME280;24535;45.508;12.252;2022-12-19T19:29:24;103282.47;;;7.06;59.40
38786;BME280;24535;45.508;12.252;2022-12-19T19:32:13;103279.84;;;7.06;59.76
38786;BME280;24535;45.508;12.252;2022-12-19T19:34:44;103275.47;;;7.05;59.54
38786;BME280;24535;45.508;12.252;2022-12-19T19:39:48;103278.09;;;7.06;59.53
38786;BME280;24535;45.508;12.252;2022-12-19T19:42:23;103266.81;;;6.97;59.66
38786;BME280;24535;45.508;12.252;2022-12-19T19:45:12;103259.00;;;6.93;59.95
38786;BME280;24535;45.508;12.252;2022-12-19T19:50:51;103263.38;;;6.91;59.66
38786;BME280;24535;45.508;12.252;2022-12-19T19:53:23;103258.19;;;6.87;59.72
38786;BME280;24535;45.508;12.252;2022-12-19T19:55:56;103259.94;;;6.88;59.13
38786;BME280;24535;45.508;12.252;2022-12-19T19:58:38;103259.06;;;6.89;59.65
38786;BME280;24535;45.508;12.252;2022-12-19T20:01:11;103253.84;;;6.89;59.56
38786;BME280;24535;45.508;12.252;2022-12-19T20:03:38;103260.81;;;6.87;59.58
38786;BME280;24535;45.508;12.252;2022-12-19T20:06:06;103273.03;;;6.88;59.18
38786;BME280;24535;45.508;12.252;2022-12-19T20:08:31;103266.09;;;6.84;59.54
38786;BME280;24535;45.508;12.252;2022-12-19T20:11:25;103265.22;;;6.83;60.04
38786;BME280;24535;45.508;12.252;2022-12-19T20:13:50;103267.84;;;6.85;59.53
38786;BME280;24535;45.508;12.252;2022-12-19T20:16:25;103273.94;;;6.84;59.37
38786;BME280;24535;45.508;12.252;2022-12-19T20:18:51;103258.28;;;6.79;59.74
38786;BME280;24535;45.508;12.252;2022-12-19T20:31:59;103275.81;;;6.74;59.88
38786;BME280;24535;45.508;12.252;2022-12-19T20:34:28;103264.56;;;6.64;60.00
38786;BME280;24535;45.508;12.252;2022-12-19T20:53:22;103248.97;;;6.51;60.15
38786;BME280;24535;45.508;12.252;2022-12-19T20:55:58;103252.44;;;6.51;60.50
38786;BME280;24535;45.508;12.252;2022-12-19T20:58:35;103255.06;;;6.53;60.26
38786;BME280;24535;45.508;12.252;2022-12-19T21:01:22;103243.72;;;6.51;60.50
38786;BME280;24535;45.508;12.252;2022-12-19T21:03:48;103252.44;;;6.51;60.52
38786;BME280;24535;45.508;12.252;2022-12-19T21:06:45;103244.56;;;6.54;60.65
38786;BME280;24535;45.508;12.252;2022-12-19T21:26:11;103234.19;;;6.43;61.02
38786;BME280;24535;45.508;12.252;2022-12-19T21:28:37;103227.28;;;6.35;60.37
38786;BME280;24535;45.508;12.252;2022-12-19T21:31:22;103231.63;;;6.36;61.16
38786;BME280;24535;45.508;12.252;2022-12-19T21:33:50;103230.81;;;6.32;60.97
38786;BME280;24535;45.508;12.252;2022-12-19T21:49:47;103234.28;;;6.34;61.49
38786;BME280;24535;45.508;12.252;2022-12-19T21:52:13;103227.31;;;6.32;61.38
38786;BME280;24535;45.508;12.252;2022-12-19T21:54:38;103225.59;;;6.28;61.32
38786;BME280;24535;45.508;12.252;2022-12-19T22:05:53;103224.84;;;6.13;60.99
38786;BME280;24535;45.508;12.252;2022-12-19T22:15:13;103234.44;;;6.11;61.28
38786;BME280;24535;45.508;12.252;2022-12-19T22:17:46;103236.22;;;6.09;60.89
38786;BME280;24535;45.508;12.252;2022-12-19T22:25:32;103236.16;;;6.15;61.41
38786;BME280;24535;45.508;12.252;2022-12-19T22:46:29;103216.28;;;5.87;62.75
38786;BME280;24535;45.508;12.252;2022-12-19T22:48:57;103210.19;;;5.88;62.10
38786;BME280;24535;45.508;12.252;2022-12-19T22:54:00;103200.56;;;5.94;62.02
38786;BME280;24535;45.508;12.252;2022-12-19T22:59:35;103200.53;;;6.02;62.31
38786;BME280;24535;45.508;12.252;2022-12-19T23:05:34;103206.56;;;6.07;61.83
38786;BME280;24535;45.508;12.252;2022-12-19T23:08:03;103199.63;;;6.05;62.07
38786;BME280;24535;45.508;12.252;2022-12-19T23:10:41;103197.94;;;6.01;61.94
38786;BME280;24535;45.508;12.252;2022-12-19T23:13:08;103188.34;;;5.98;61.81
38786;BME280;24535;45.508;12.252;2022-12-19T23:22:37;103201.38;;;6.03;62.89
38786;BME280;24535;45.508;12.252;2022-12-19T23:25:02;103190.94;;;6.01;61.99
38786;BME280;24535;45.508;12.252;2022-12-19T23:27:39;103198.75;;;6.06;62.39
38786;BME280;24535;45.508;12.252;2022-12-19T23:30:05;103200.50;;;6.05;62.69
38786;BME280;24535;45.508;12.252;2022-12-19T23:32:30;103187.41;;;6.08;62.76
38786;BME280;24535;45.508;12.252;2022-12-19T23:34:56;103187.41;;;6.07;62.09
38786;BME280;24535;45.508;12.252;2022-12-19T23:37:30;103184.72;;;6.11;62.73
38786;BME280;24535;45.508;12.252;2022-12-19T23:39:56;103189.09;;;6.14;62.44
38786;BME280;24535;45.508;12.252;2022-12-19T23:42:22;103177.78;;;6.10;62.52
